Decoded Metar for LPBJ (BEJA in PORTUGAL) (IATA:N/A) | Meteo·Mobile Aviation Weather
aviador You're here:

LPBJ Decoded Metar

BEJA in PORTUGAL
Report Time2019-02-23 00:00:00
UTC Time2019-02-23 01:01:32
Flight Rules vfr VFR
Wind080° at 04 kt
W.Decomp.*RWY 01: 1.2 kt HW 3.8 kt RCW
W.Rank080° ranks 14
Current wind is below 080° avg. (5.7)
Visibility9999 m
Phenomena:N/A
Clouds:N/A
Expected CloudBase > 800 ft AGL from Temp-Dew spread
CeilingNone
Temp10°C (ISA -3)
Dew Point08°C (88% RH)
AAT8.1°C
QNH1030 hPa
Density Alt-20 ft
Elevation810 ft
Report Wrong Elevation
Raw Report
LPBJ 230000Z 08004KT CAVOK 10/08 Q1030=

Extra information for LPBJ:More info

Metar Taf Metar & Taf Last 4 Metars F.Rules Stats Wind Profile Meteogram Temp Stats Airport Information Weather charts Add Link Nearby VenuesMetar ALERT Operation Metar Decoded Social comments